Aviation Digital Data Service (ADDS)

Output produced by METARs form (2339 UTC 15 February 2019)
found at http://www.aviationweather.gov/metar/data/
 
METAR text: YPXM 152300Z AUTO 11006KT 9999 // SCT036 SCT041 25/22 Q1015
Conditions at: YPXM (CHRISTMAS ISL (P, AU) observed 2300 UTC 15 February 2019
Temperature: 25.0°C (77°F)
Dewpoint: 22.0°C (72°F) [RH = 83%]
Pressure (altimeter): 29.97 inches Hg (1015.0 mb)
Winds: from the ESE (110 degrees) at 7 MPH (6 knots; 3.1 m/s)
Visibility: 6 or more miles (10+ km)
Ceiling: at least 12,000 feet AGL
Clouds: scattered clouds at 3600 feet AGL
scattered clouds at 4100 feet AGL
Weather: no significant weather observed at this time

METAR text: YPXM 152230Z AUTO 10006KT 9999 // SCT014 BKN018 BKN027 25/23 Q1015
Conditions at: YPXM (CHRISTMAS ISL (P, AU) observed 2230 UTC 15 February 2019
Temperature: 25.0°C (77°F)
Dewpoint: 23.0°C (73°F) [RH = 89%]
Pressure (altimeter): 29.97 inches Hg (1015.0 mb)
Winds: from the E (100 degrees) at 7 MPH (6 knots; 3.1 m/s)
Visibility: 6 or more miles (10+ km)
Ceiling: 1800 feet AGL
Clouds: scattered clouds at 1400 feet AGL
broken clouds at 1800 feet AGL
broken clouds at 2700 feet AGL
Weather: no significant weather observed at this time

METAR text: YPXM 152223Z AUTO 10006KT 9999 // SCT014 SCT023 25/23 Q1015
Conditions at: YPXM (CHRISTMAS ISL (P, AU) observed 2223 UTC 15 February 2019
Temperature: 25.0°C (77°F)
Dewpoint: 23.0°C (73°F) [RH = 89%]
Pressure (altimeter): 29.97 inches Hg (1015.0 mb)
Winds: from the E (100 degrees) at 7 MPH (6 knots; 3.1 m/s)
Visibility: 6 or more miles (10+ km)
Ceiling: at least 12,000 feet AGL
Clouds: scattered clouds at 1400 feet AGL
scattered clouds at 2300 feet AGL
Weather: no significant weather observed at this time

METAR text: YPXM 152200Z AUTO 10006KT 9999 // BKN014 BKN022 25/23 Q1014
Conditions at: YPXM (CHRISTMAS ISL (P, AU) observed 2200 UTC 15 February 2019
Temperature: 25.0°C (77°F)
Dewpoint: 23.0°C (73°F) [RH = 89%]
Pressure (altimeter): 29.94 inches Hg (1014.0 mb)
Winds: from the E (100 degrees) at 7 MPH (6 knots; 3.1 m/s)
Visibility: 6 or more miles (10+ km)
Ceiling: 1400 feet AGL
Clouds: broken clouds at 1400 feet AGL
broken clouds at 2200 feet AGL
Weather: no significant weather observed at this time

METAR text: YPXM 152130Z AUTO 11004KT 9999 // BKN014 24/23 Q1014
Conditions at: YPXM (CHRISTMAS ISL (P, AU) observed 2130 UTC 15 February 2019
Temperature: 24.0°C (75°F)
Dewpoint: 23.0°C (73°F) [RH = 94%]
Pressure (altimeter): 29.94 inches Hg (1014.0 mb)
Winds: from the ESE (110 degrees) at 5 MPH (4 knots; 2.1 m/s)
Visibility: 6 or more miles (10+ km)
Ceiling: 1400 feet AGL
Clouds: broken clouds at 1400 feet AGL
Weather: no significant weather observed at this time

METAR text: YPXM 152112Z AUTO 12005KT 9999 // BKN014 25/23 Q1014
Conditions at: YPXM (CHRISTMAS ISL (P, AU) observed 2112 UTC 15 February 2019
Temperature: 25.0°C (77°F)
Dewpoint: 23.0°C (73°F) [RH = 89%]
Pressure (altimeter): 29.94 inches Hg (1014.0 mb)
Winds: from the ESE (120 degrees) at 6 MPH (5 knots; 2.6 m/s)
Visibility: 6 or more miles (10+ km)
Ceiling: 1400 feet AGL
Clouds: broken clouds at 1400 feet AGL
Weather: no significant weather observed at this time

METAR text: YPXM 152111Z AUTO 12005KT 9999 // BKN014 25/23 Q1014
Conditions at: YPXM (CHRISTMAS ISL (P, AU) observed 2111 UTC 15 February 2019
Temperature: 25.0°C (77°F)
Dewpoint: 23.0°C (73°F) [RH = 89%]
Pressure (altimeter): 29.94 inches Hg (1014.0 mb)
Winds: from the ESE (120 degrees) at 6 MPH (5 knots; 2.6 m/s)
Visibility: 6 or more miles (10+ km)
Ceiling: 1400 feet AGL
Clouds: broken clouds at 1400 feet AGL
Weather: no significant weather observed at this time

METAR text: YPXM 152110Z AUTO 12005KT 9999 // SCT014 25/23 Q1014
Conditions at: YPXM (CHRISTMAS ISL (P, AU) observed 2110 UTC 15 February 2019
Temperature: 25.0°C (77°F)
Dewpoint: 23.0°C (73°F) [RH = 89%]
Pressure (altimeter): 29.94 inches Hg (1014.0 mb)
Winds: from the ESE (120 degrees) at 6 MPH (5 knots; 2.6 m/s)
Visibility: 6 or more miles (10+ km)
Ceiling: at least 12,000 feet AGL
Clouds: scattered clouds at 1400 feet AGL
Weather: no significant weather observed at this time

METAR text: YPXM 152100Z AUTO 11006KT 9999 // BKN014 25/23 Q1014
Conditions at: YPXM (CHRISTMAS ISL (P, AU) observed 2100 UTC 15 February 2019
Temperature: 25.0°C (77°F)
Dewpoint: 23.0°C (73°F) [RH = 89%]
Pressure (altimeter): 29.94 inches Hg (1014.0 mb)
Winds: from the ESE (110 degrees) at 7 MPH (6 knots; 3.1 m/s)
Visibility: 6 or more miles (10+ km)
Ceiling: 1400 feet AGL
Clouds: broken clouds at 1400 feet AGL
Weather: no significant weather observed at this time

METAR text: YPXM 152057Z AUTO 11005KT 9999 // BKN014 25/23 Q1014 RF00/0//////
Conditions at: YPXM (CHRISTMAS ISL (P, AU) observed 2057 UTC 15 February 2019
Temperature: 25.0°C (77°F)
Dewpoint: 23.0°C (73°F) [RH = 89%]
Pressure (altimeter): 29.94 inches Hg (1014.0 mb)
Winds: from the ESE (110 degrees) at 6 MPH (5 knots; 2.6 m/s)
Visibility: 6 or more miles (10+ km)
Ceiling: 1400 feet AGL
Clouds: broken clouds at 1400 feet AGL
Weather: no significant weather observed at this time

METAR text: YPXM 152056Z AUTO 11005KT 9999 // BKN014 25/23 Q1014
Conditions at: YPXM (CHRISTMAS ISL (P, AU) observed 2056 UTC 15 February 2019
Temperature: 25.0°C (77°F)
Dewpoint: 23.0°C (73°F) [RH = 89%]
Pressure (altimeter): 29.94 inches Hg (1014.0 mb)
Winds: from the ESE (110 degrees) at 6 MPH (5 knots; 2.6 m/s)
Visibility: 6 or more miles (10+ km)
Ceiling: 1400 feet AGL
Clouds: broken clouds at 1400 feet AGL
Weather: no significant weather observed at this time

METAR text: YPXM 152030Z AUTO 12005KT 9999 // SCT012 SCT018 24/23 Q1014
Conditions at: YPXM (CHRISTMAS ISL (P, AU) observed 2030 UTC 15 February 2019
Temperature: 24.0°C (75°F)
Dewpoint: 23.0°C (73°F) [RH = 94%]
Pressure (altimeter): 29.94 inches Hg (1014.0 mb)
Winds: from the ESE (120 degrees) at 6 MPH (5 knots; 2.6 m/s)
Visibility: 6 or more miles (10+ km)
Ceiling: at least 12,000 feet AGL
Clouds: scattered clouds at 1200 feet AGL
scattered clouds at 1800 feet AGL
Weather: no significant weather observed at this time

METAR text: YPXM 152000Z AUTO 13005KT 9999 // SCT014 24/23 Q1014
Conditions at: YPXM (CHRISTMAS ISL (P, AU) observed 2000 UTC 15 February 2019
Temperature: 24.0°C (75°F)
Dewpoint: 23.0°C (73°F) [RH = 94%]
Pressure (altimeter): 29.94 inches Hg (1014.0 mb)
Winds: from the SE (130 degrees) at 6 MPH (5 knots; 2.6 m/s)
Visibility: 6 or more miles (10+ km)
Ceiling: at least 12,000 feet AGL
Clouds: scattered clouds at 1400 feet AGL
Weather: no significant weather observed at this time

METAR text: YPXM 151930Z AUTO 13003KT 9999 // SCT014 SCT017 SCT033 24/23 Q1014
Conditions at: YPXM (CHRISTMAS ISL (P, AU) observed 1930 UTC 15 February 2019
Temperature: 24.0°C (75°F)
Dewpoint: 23.0°C (73°F) [RH = 94%]
Pressure (altimeter): 29.94 inches Hg (1014.0 mb)
Winds: from the SE (130 degrees) at 3 MPH (3 knots; 1.5 m/s)
Visibility: 6 or more miles (10+ km)
Ceiling: at least 12,000 feet AGL
Clouds: scattered clouds at 1400 feet AGL
scattered clouds at 1700 feet AGL
scattered clouds at 3300 feet AGL
Weather: no significant weather observed at this time

METAR text: YPXM 151900Z AUTO 12003KT 9999 -SHRA SCT014 SCT019 BKN054 24/23 Q1014
Conditions at: YPXM (CHRISTMAS ISL (P, AU) observed 1900 UTC 15 February 2019
Temperature: 24.0°C (75°F)
Dewpoint: 23.0°C (73°F) [RH = 94%]
Pressure (altimeter): 29.94 inches Hg (1014.0 mb)
Winds: from the ESE (120 degrees) at 3 MPH (3 knots; 1.5 m/s)
Visibility: 6 or more miles (10+ km)
Ceiling: 5400 feet AGL
Clouds: scattered clouds at 1400 feet AGL
scattered clouds at 1900 feet AGL
broken clouds at 5400 feet AGL
Weather: -SHRA  (light rain showers)

METAR text: YPXM 151830Z AUTO 13001KT 9999 // NCD 24/22 Q1015
Conditions at: YPXM (CHRISTMAS ISL (P, AU) observed 1830 UTC 15 February 2019
Temperature: 24.0°C (75°F)
Dewpoint: 22.0°C (72°F) [RH = 89%]
Pressure (altimeter): 29.97 inches Hg (1015.0 mb)
Winds: from the SE (130 degrees) at 1 MPH (1 knots; 0.5 m/s)
Visibility: 6 or more miles (10+ km)
Ceiling: at least 12,000 feet AGL
Clouds: sky clear below 12,000 feet AGL
Weather: no significant weather observed at this time

METAR text: YPXM 151800Z AUTO 14005KT 9999 // SCT013 25/22 Q1015
Conditions at: YPXM (CHRISTMAS ISL (P, AU) observed 1800 UTC 15 February 2019
Temperature: 25.0°C (77°F)
Dewpoint: 22.0°C (72°F) [RH = 83%]
Pressure (altimeter): 29.97 inches Hg (1015.0 mb)
Winds: from the SE (140 degrees) at 6 MPH (5 knots; 2.6 m/s)
Visibility: 6 or more miles (10+ km)
Ceiling: at least 12,000 feet AGL
Clouds: scattered clouds at 1300 feet AGL
Weather: no significant weather observed at this time

METAR text: YPXM 151755Z AUTO 14005KT 9999 // SCT013 25/23 Q1015 RF00/0//////
Conditions at: YPXM (CHRISTMAS ISL (P, AU) observed 1755 UTC 15 February 2019
Temperature: 25.0°C (77°F)
Dewpoint: 23.0°C (73°F) [RH = 89%]
Pressure (altimeter): 29.97 inches Hg (1015.0 mb)
Winds: from the SE (140 degrees) at 6 MPH (5 knots; 2.6 m/s)
Visibility: 6 or more miles (10+ km)
Ceiling: at least 12,000 feet AGL
Clouds: scattered clouds at 1300 feet AGL
Weather: no significant weather observed at this time

METAR text: YPXM 151754Z AUTO 14005KT 9999 // SCT013 25/23 Q1015
Conditions at: YPXM (CHRISTMAS ISL (P, AU) observed 1754 UTC 15 February 2019
Temperature: 25.0°C (77°F)
Dewpoint: 23.0°C (73°F) [RH = 89%]
Pressure (altimeter): 29.97 inches Hg (1015.0 mb)
Winds: from the SE (140 degrees) at 6 MPH (5 knots; 2.6 m/s)
Visibility: 6 or more miles (10+ km)
Ceiling: at least 12,000 feet AGL
Clouds: scattered clouds at 1300 feet AGL
Weather: no significant weather observed at this time

METAR text: YPXM 151730Z AUTO 11005KT 9999 // BKN013 BKN020 BKN041 25/23 Q1015
Conditions at: YPXM (CHRISTMAS ISL (P, AU) observed 1730 UTC 15 February 2019
Temperature: 25.0°C (77°F)
Dewpoint: 23.0°C (73°F) [RH = 89%]
Pressure (altimeter): 29.97 inches Hg (1015.0 mb)
Winds: from the ESE (110 degrees) at 6 MPH (5 knots; 2.6 m/s)
Visibility: 6 or more miles (10+ km)
Ceiling: 1300 feet AGL
Clouds: broken clouds at 1300 feet AGL
broken clouds at 2000 feet AGL
broken clouds at 4100 feet AGL
Weather: no significant weather observed at this time

METAR text: YPXM 151721Z AUTO 12005KT 9999 // BKN013 BKN020 25/23 Q1015
Conditions at: YPXM (CHRISTMAS ISL (P, AU) observed 1721 UTC 15 February 2019
Temperature: 25.0°C (77°F)
Dewpoint: 23.0°C (73°F) [RH = 89%]
Pressure (altimeter): 29.97 inches Hg (1015.0 mb)
Winds: from the ESE (120 degrees) at 6 MPH (5 knots; 2.6 m/s)
Visibility: 6 or more miles (10+ km)
Ceiling: 1300 feet AGL
Clouds: broken clouds at 1300 feet AGL
broken clouds at 2000 feet AGL
Weather: no significant weather observed at this time

METAR text: YPXM 151720Z AUTO 12005KT 9999 // BKN013 BKN018 25/23 Q1015
Conditions at: YPXM (CHRISTMAS ISL (P, AU) observed 1720 UTC 15 February 2019
Temperature: 25.0°C (77°F)
Dewpoint: 23.0°C (73°F) [RH = 89%]
Pressure (altimeter): 29.97 inches Hg (1015.0 mb)
Winds: from the ESE (120 degrees) at 6 MPH (5 knots; 2.6 m/s)
Visibility: 6 or more miles (10+ km)
Ceiling: 1300 feet AGL
Clouds: broken clouds at 1300 feet AGL
broken clouds at 1800 feet AGL
Weather: no significant weather observed at this time

METAR text: YPXM 151700Z AUTO 13005KT 9999 // NCD 25/23 Q1015
Conditions at: YPXM (CHRISTMAS ISL (P, AU) observed 1700 UTC 15 February 2019
Temperature: 25.0°C (77°F)
Dewpoint: 23.0°C (73°F) [RH = 89%]
Pressure (altimeter): 29.97 inches Hg (1015.0 mb)
Winds: from the SE (130 degrees) at 6 MPH (5 knots; 2.6 m/s)
Visibility: 6 or more miles (10+ km)
Ceiling: at least 12,000 feet AGL
Clouds: sky clear below 12,000 feet AGL
Weather: no significant weather observed at this time

METAR text: YPXM 151630Z AUTO 13006KT 9999 // SCT014 25/23 Q1016
Conditions at: YPXM (CHRISTMAS ISL (P, AU) observed 1630 UTC 15 February 2019
Temperature: 25.0°C (77°F)
Dewpoint: 23.0°C (73°F) [RH = 89%]
Pressure (altimeter): 30.00 inches Hg (1016.0 mb)
Winds: from the SE (130 degrees) at 7 MPH (6 knots; 3.1 m/s)
Visibility: 6 or more miles (10+ km)
Ceiling: at least 12,000 feet AGL
Clouds: scattered clouds at 1400 feet AGL
Weather: no significant weather observed at this time

METAR text: YPXM 151600Z AUTO 13005KT 9999 // NCD 25/23 Q1016
Conditions at: YPXM (CHRISTMAS ISL (P, AU) observed 1600 UTC 15 February 2019
Temperature: 25.0°C (77°F)
Dewpoint: 23.0°C (73°F) [RH = 89%]
Pressure (altimeter): 30.00 inches Hg (1016.0 mb)
Winds: from the SE (130 degrees) at 6 MPH (5 knots; 2.6 m/s)
Visibility: 6 or more miles (10+ km)
Ceiling: at least 12,000 feet AGL
Clouds: sky clear below 12,000 feet AGL
Weather: no significant weather observed at this time

METAR text: YPXM 151530Z AUTO 13006KT 9999 // SCT014 25/22 Q1016
Conditions at: YPXM (CHRISTMAS ISL (P, AU) observed 1530 UTC 15 February 2019
Temperature: 25.0°C (77°F)
Dewpoint: 22.0°C (72°F) [RH = 83%]
Pressure (altimeter): 30.00 inches Hg (1016.0 mb)
Winds: from the SE (130 degrees) at 7 MPH (6 knots; 3.1 m/s)
Visibility: 6 or more miles (10+ km)
Ceiling: at least 12,000 feet AGL
Clouds: scattered clouds at 1400 feet AGL
Weather: no significant weather observed at this time

METAR text: YPXM 151500Z AUTO 13007KT 9999 // NCD 25/22 Q1016
Conditions at: YPXM (CHRISTMAS ISL (P, AU) observed 1500 UTC 15 February 2019
Temperature: 25.0°C (77°F)
Dewpoint: 22.0°C (72°F) [RH = 83%]
Pressure (altimeter): 30.00 inches Hg (1016.0 mb)
Winds: from the SE (130 degrees) at 8 MPH (7 knots; 3.6 m/s)
Visibility: 6 or more miles (10+ km)
Ceiling: at least 12,000 feet AGL
Clouds: sky clear below 12,000 feet AGL
Weather: no significant weather observed at this time

METAR text: YPXM 151430Z AUTO 13007KT 9999 // NCD 25/22 Q1016
Conditions at: YPXM (CHRISTMAS ISL (P, AU) observed 1430 UTC 15 February 2019
Temperature: 25.0°C (77°F)
Dewpoint: 22.0°C (72°F) [RH = 83%]
Pressure (altimeter): 30.00 inches Hg (1016.0 mb)
Winds: from the SE (130 degrees) at 8 MPH (7 knots; 3.6 m/s)
Visibility: 6 or more miles (10+ km)
Ceiling: at least 12,000 feet AGL
Clouds: sky clear below 12,000 feet AGL
Weather: no significant weather observed at this time

METAR text: YPXM 151400Z AUTO 13007KT 9999 // SCT018 25/22 Q1015
Conditions at: YPXM (CHRISTMAS ISL (P, AU) observed 1400 UTC 15 February 2019
Temperature: 25.0°C (77°F)
Dewpoint: 22.0°C (72°F) [RH = 83%]
Pressure (altimeter): 29.97 inches Hg (1015.0 mb)
Winds: from the SE (130 degrees) at 8 MPH (7 knots; 3.6 m/s)
Visibility: 6 or more miles (10+ km)
Ceiling: at least 12,000 feet AGL
Clouds: scattered clouds at 1800 feet AGL
Weather: no significant weather observed at this time

METAR text: YPXM 151330Z AUTO 13008KT 9999 // BKN018 BKN023 26/22 Q1015
Conditions at: YPXM (CHRISTMAS ISL (P, AU) observed 1330 UTC 15 February 2019
Temperature: 26.0°C (79°F)
Dewpoint: 22.0°C (72°F) [RH = 79%]
Pressure (altimeter): 29.97 inches Hg (1015.0 mb)
Winds: from the SE (130 degrees) at 9 MPH (8 knots; 4.1 m/s)
Visibility: 6 or more miles (10+ km)
Ceiling: 1800 feet AGL
Clouds: broken clouds at 1800 feet AGL
broken clouds at 2300 feet AGL
Weather: no significant weather observed at this time

METAR text: YPXM 151300Z AUTO 13005KT 9999 // SCT016 SCT028 25/22 Q1015
Conditions at: YPXM (CHRISTMAS ISL (P, AU) observed 1300 UTC 15 February 2019
Temperature: 25.0°C (77°F)
Dewpoint: 22.0°C (72°F) [RH = 83%]
Pressure (altimeter): 29.97 inches Hg (1015.0 mb)
Winds: from the SE (130 degrees) at 6 MPH (5 knots; 2.6 m/s)
Visibility: 6 or more miles (10+ km)
Ceiling: at least 12,000 feet AGL
Clouds: scattered clouds at 1600 feet AGL
scattered clouds at 2800 feet AGL
Weather: no significant weather observed at this time

METAR text: YPXM 151230Z AUTO 13006KT 9999 // SCT018 25/22 Q1014
Conditions at: YPXM (CHRISTMAS ISL (P, AU) observed 1230 UTC 15 February 2019
Temperature: 25.0°C (77°F)
Dewpoint: 22.0°C (72°F) [RH = 83%]
Pressure (altimeter): 29.94 inches Hg (1014.0 mb)
Winds: from the SE (130 degrees) at 7 MPH (6 knots; 3.1 m/s)
Visibility: 6 or more miles (10+ km)
Ceiling: at least 12,000 feet AGL
Clouds: scattered clouds at 1800 feet AGL
Weather: no significant weather observed at this time

METAR text: YPXM 151200Z AUTO 13006KT 9999 // SCT018 25/22 Q1014
Conditions at: YPXM (CHRISTMAS ISL (P, AU) observed 1200 UTC 15 February 2019
Temperature: 25.0°C (77°F)
Dewpoint: 22.0°C (72°F) [RH = 83%]
Pressure (altimeter): 29.94 inches Hg (1014.0 mb)
Winds: from the SE (130 degrees) at 7 MPH (6 knots; 3.1 m/s)
Visibility: 6 or more miles (10+ km)
Ceiling: at least 12,000 feet AGL
Clouds: scattered clouds at 1800 feet AGL
Weather: no significant weather observed at this time

METAR text: YPXM 151130Z AUTO 13006KT 9999 // SCT018 26/22 Q1013
Conditions at: YPXM (CHRISTMAS ISL (P, AU) observed 1130 UTC 15 February 2019
Temperature: 26.0°C (79°F)
Dewpoint: 22.0°C (72°F) [RH = 79%]
Pressure (altimeter): 29.91 inches Hg (1013.0 mb)
Winds: from the SE (130 degrees) at 7 MPH (6 knots; 3.1 m/s)
Visibility: 6 or more miles (10+ km)
Ceiling: at least 12,000 feet AGL
Clouds: scattered clouds at 1800 feet AGL
Weather: no significant weather observed at this time

METAR text: YPXM 151100Z AUTO 14006KT 9999 // SCT018 BKN024 26/22 Q1013
Conditions at: YPXM (CHRISTMAS ISL (P, AU) observed 1100 UTC 15 February 2019
Temperature: 26.0°C (79°F)
Dewpoint: 22.0°C (72°F) [RH = 79%]
Pressure (altimeter): 29.91 inches Hg (1013.0 mb)
Winds: from the SE (140 degrees) at 7 MPH (6 knots; 3.1 m/s)
Visibility: 6 or more miles (10+ km)
Ceiling: 2400 feet AGL
Clouds: scattered clouds at 1800 feet AGL
broken clouds at 2400 feet AGL
Weather: no significant weather observed at this time

METAR text: YPXM 151030Z AUTO 13007KT 9999 // SCT020 26/22 Q1013
Conditions at: YPXM (CHRISTMAS ISL (P, AU) observed 1030 UTC 15 February 2019
Temperature: 26.0°C (79°F)
Dewpoint: 22.0°C (72°F) [RH = 79%]
Pressure (altimeter): 29.91 inches Hg (1013.0 mb)
Winds: from the SE (130 degrees) at 8 MPH (7 knots; 3.6 m/s)
Visibility: 6 or more miles (10+ km)
Ceiling: at least 12,000 feet AGL
Clouds: scattered clouds at 2000 feet AGL
Weather: no significant weather observed at this time

METAR text: YPXM 151000Z AUTO 13007KT 9999 // SCT017 27/22 Q1013
Conditions at: YPXM (CHRISTMAS ISL (P, AU) observed 1000 UTC 15 February 2019
Temperature: 27.0°C (81°F)
Dewpoint: 22.0°C (72°F) [RH = 74%]
Pressure (altimeter): 29.91 inches Hg (1013.0 mb)
Winds: from the SE (130 degrees) at 8 MPH (7 knots; 3.6 m/s)
Visibility: 6 or more miles (10+ km)
Ceiling: at least 12,000 feet AGL
Clouds: scattered clouds at 1700 feet AGL
Weather: no significant weather observed at this time

METAR text: YPXM 150930Z AUTO 12009KT 9999 // SCT018 28/22 Q1013
Conditions at: YPXM (CHRISTMAS ISL (P, AU) observed 0930 UTC 15 February 2019
Temperature: 28.0°C (82°F)
Dewpoint: 22.0°C (72°F) [RH = 70%]
Pressure (altimeter): 29.91 inches Hg (1013.0 mb)
Winds: from the ESE (120 degrees) at 10 MPH (9 knots; 4.6 m/s)
Visibility: 6 or more miles (10+ km)
Ceiling: at least 12,000 feet AGL
Clouds: scattered clouds at 1800 feet AGL
Weather: no significant weather observed at this time

METAR text: YPXM 150900Z AUTO 13009KT 9999 // SCT020 27/22 Q1013
Conditions at: YPXM (CHRISTMAS ISL (P, AU) observed 0900 UTC 15 February 2019
Temperature: 27.0°C (81°F)
Dewpoint: 22.0°C (72°F) [RH = 74%]
Pressure (altimeter): 29.91 inches Hg (1013.0 mb)
Winds: from the SE (130 degrees) at 10 MPH (9 knots; 4.6 m/s)
Visibility: 6 or more miles (10+ km)
Ceiling: at least 12,000 feet AGL
Clouds: scattered clouds at 2000 feet AGL
Weather: no significant weather observed at this time

METAR text: YPXM 150830Z AUTO 11010KT 9999 // SCT020 27/21 Q1013
Conditions at: YPXM (CHRISTMAS ISL (P, AU) observed 0830 UTC 15 February 2019
Temperature: 27.0°C (81°F)
Dewpoint: 21.0°C (70°F) [RH = 70%]
Pressure (altimeter): 29.91 inches Hg (1013.0 mb)
Winds: from the ESE (110 degrees) at 12 MPH (10 knots; 5.1 m/s)
Visibility: 6 or more miles (10+ km)
Ceiling: at least 12,000 feet AGL
Clouds: scattered clouds at 2000 feet AGL
Weather: no significant weather observed at this time

METAR text: YPXM 150800Z AUTO 10009KT 9999 // SCT020 28/22 Q1013
Conditions at: YPXM (CHRISTMAS ISL (P, AU) observed 0800 UTC 15 February 2019
Temperature: 28.0°C (82°F)
Dewpoint: 22.0°C (72°F) [RH = 70%]
Pressure (altimeter): 29.91 inches Hg (1013.0 mb)
Winds: from the E (100 degrees) at 10 MPH (9 knots; 4.6 m/s)
Visibility: 6 or more miles (10+ km)
Ceiling: at least 12,000 feet AGL
Clouds: scattered clouds at 2000 feet AGL
Weather: no significant weather observed at this time

METAR text: YPXM 150730Z AUTO 11011KT 9999 // SCT020 28/22 Q1013
Conditions at: YPXM (CHRISTMAS ISL (P, AU) observed 0730 UTC 15 February 2019
Temperature: 28.0°C (82°F)
Dewpoint: 22.0°C (72°F) [RH = 70%]
Pressure (altimeter): 29.91 inches Hg (1013.0 mb)
Winds: from the ESE (110 degrees) at 13 MPH (11 knots; 5.7 m/s)
Visibility: 6 or more miles (10+ km)
Ceiling: at least 12,000 feet AGL
Clouds: scattered clouds at 2000 feet AGL
Weather: no significant weather observed at this time

METAR text: YPXM 150700Z AUTO 11011KT 9999 // NCD 27/21 Q1013
Conditions at: YPXM (CHRISTMAS ISL (P, AU) observed 0700 UTC 15 February 2019
Temperature: 27.0°C (81°F)
Dewpoint: 21.0°C (70°F) [RH = 70%]
Pressure (altimeter): 29.91 inches Hg (1013.0 mb)
Winds: from the ESE (110 degrees) at 13 MPH (11 knots; 5.7 m/s)
Visibility: 6 or more miles (10+ km)
Ceiling: at least 12,000 feet AGL
Clouds: sky clear below 12,000 feet AGL
Weather: no significant weather observed at this time

METAR text: YPXM 150630Z AUTO 11011KT 9999 // NCD 28/21 Q1014
Conditions at: YPXM (CHRISTMAS ISL (P, AU) observed 0630 UTC 15 February 2019
Temperature: 28.0°C (82°F)
Dewpoint: 21.0°C (70°F) [RH = 66%]
Pressure (altimeter): 29.94 inches Hg (1014.0 mb)
Winds: from the ESE (110 degrees) at 13 MPH (11 knots; 5.7 m/s)
Visibility: 6 or more miles (10+ km)
Ceiling: at least 12,000 feet AGL
Clouds: sky clear below 12,000 feet AGL
Weather: no significant weather observed at this time

METAR text: YPXM 150600Z AUTO 12011KT 9999 // NCD 28/21 Q1014
Conditions at: YPXM (CHRISTMAS ISL (P, AU) observed 0600 UTC 15 February 2019
Temperature: 28.0°C (82°F)
Dewpoint: 21.0°C (70°F) [RH = 66%]
Pressure (altimeter): 29.94 inches Hg (1014.0 mb)
Winds: from the ESE (120 degrees) at 13 MPH (11 knots; 5.7 m/s)
Visibility: 6 or more miles (10+ km)
Ceiling: at least 12,000 feet AGL
Clouds: sky clear below 12,000 feet AGL
Weather: no significant weather observed at this time

METAR text: YPXM 150530Z AUTO 11012KT 9999 // SCT021 28/21 Q1014
Conditions at: YPXM (CHRISTMAS ISL (P, AU) observed 0530 UTC 15 February 2019
Temperature: 28.0°C (82°F)
Dewpoint: 21.0°C (70°F) [RH = 66%]
Pressure (altimeter): 29.94 inches Hg (1014.0 mb)
Winds: from the ESE (110 degrees) at 14 MPH (12 knots; 6.2 m/s)
Visibility: 6 or more miles (10+ km)
Ceiling: at least 12,000 feet AGL
Clouds: scattered clouds at 2100 feet AGL
Weather: no significant weather observed at this time

METAR text: YPXM 150500Z AUTO 11013KT 9999 // SCT023 28/22 Q1015
Conditions at: YPXM (CHRISTMAS ISL (P, AU) observed 0500 UTC 15 February 2019
Temperature: 28.0°C (82°F)
Dewpoint: 22.0°C (72°F) [RH = 70%]
Pressure (altimeter): 29.97 inches Hg (1015.0 mb)
Winds: from the ESE (110 degrees) at 15 MPH (13 knots; 6.7 m/s)
Visibility: 6 or more miles (10+ km)
Ceiling: at least 12,000 feet AGL
Clouds: scattered clouds at 2300 feet AGL
Weather: no significant weather observed at this time

METAR text: YPXM 150430Z AUTO 12011KT 9999 // BKN021 BKN028 28/21 Q1015
Conditions at: YPXM (CHRISTMAS ISL (P, AU) observed 0430 UTC 15 February 2019
Temperature: 28.0°C (82°F)
Dewpoint: 21.0°C (70°F) [RH = 66%]
Pressure (altimeter): 29.97 inches Hg (1015.0 mb)
Winds: from the ESE (120 degrees) at 13 MPH (11 knots; 5.7 m/s)
Visibility: 6 or more miles (10+ km)
Ceiling: 2100 feet AGL
Clouds: broken clouds at 2100 feet AGL
broken clouds at 2800 feet AGL
Weather: no significant weather observed at this time

METAR text: YPXM 150400Z AUTO 13011KT 9999 // ////// 28/21 Q1016
Conditions at: YPXM (CHRISTMAS ISL (P, AU) observed 0400 UTC 15 February 2019
Temperature: 28.0°C (82°F)
Dewpoint: 21.0°C (70°F) [RH = 66%]
Pressure (altimeter): 30.00 inches Hg (1016.0 mb)
Winds: from the SE (130 degrees) at 13 MPH (11 knots; 5.7 m/s)
Visibility: 6 or more miles (10+ km)
Ceiling: unknown
Clouds: missing
Weather: no significant weather observed at this time

METAR text: YPXM 150330Z AUTO /////KT //// // ////// ///// Q////
Conditions at: YPXM (CHRISTMAS ISL (P, AU) observed 0330 UTC 15 February 2019
Temperature: missing
Dewpoint: missing
Pressure (altimeter): missing
Winds: missing
Visibility: missing
Ceiling: unknown
Clouds: missing
Weather: no significant weather observed at this time

METAR text: YPXM 150300Z AUTO /////KT //// // ////// ///// Q////
Conditions at: YPXM (CHRISTMAS ISL (P, AU) observed 0300 UTC 15 February 2019
Temperature: missing
Dewpoint: missing
Pressure (altimeter): missing
Winds: missing
Visibility: missing
Ceiling: unknown
Clouds: missing
Weather: no significant weather observed at this time

METAR text: YPXM 150230Z AUTO /////KT //// // ////// ///// Q////
Conditions at: YPXM (CHRISTMAS ISL (P, AU) observed 0230 UTC 15 February 2019
Temperature: missing
Dewpoint: missing
Pressure (altimeter): missing
Winds: missing
Visibility: missing
Ceiling: unknown
Clouds: missing
Weather: no significant weather observed at this time

METAR text: YPXM 150200Z AUTO 13009KT 9999 // BKN020 BKN026 OVC029 27/22 Q1016
Conditions at: YPXM (CHRISTMAS ISL (P, AU) observed 0200 UTC 15 February 2019
Temperature: 27.0°C (81°F)
Dewpoint: 22.0°C (72°F) [RH = 74%]
Pressure (altimeter): 30.00 inches Hg (1016.0 mb)
Winds: from the SE (130 degrees) at 10 MPH (9 knots; 4.6 m/s)
Visibility: 6 or more miles (10+ km)
Ceiling: 2000 feet AGL
Clouds: broken clouds at 2000 feet AGL
broken clouds at 2600 feet AGL
overcast cloud deck at 2900 feet AGL
Weather: no significant weather observed at this time

METAR text: YPXM 150130Z AUTO /////KT //// // ////// ///// Q////
Conditions at: YPXM (CHRISTMAS ISL (P, AU) observed 0130 UTC 15 February 2019
Temperature: missing
Dewpoint: missing
Pressure (altimeter): missing
Winds: missing
Visibility: missing
Ceiling: unknown
Clouds: missing
Weather: no significant weather observed at this time

METAR text: YPXM 150124Z AUTO /////KT 9999 // BKN018 BKN027 27/22 Q1016
Conditions at: YPXM (CHRISTMAS ISL (P, AU) observed 0124 UTC 15 February 2019
Temperature: 27.0°C (81°F)
Dewpoint: 22.0°C (72°F) [RH = 74%]
Pressure (altimeter): 30.00 inches Hg (1016.0 mb)
Winds: missing
Visibility: 6 or more miles (10+ km)
Ceiling: 1800 feet AGL
Clouds: broken clouds at 1800 feet AGL
broken clouds at 2700 feet AGL
Weather: no significant weather observed at this time

METAR text: YPXM 142300Z AUTO 13007KT 9999 // BKN018 BKN024 25/22 Q1015
Conditions at: YPXM (CHRISTMAS ISL (P, AU) observed 2300 UTC 14 February 2019
Temperature: 25.0°C (77°F)
Dewpoint: 22.0°C (72°F) [RH = 83%]
Pressure (altimeter): 29.97 inches Hg (1015.0 mb)
Winds: from the SE (130 degrees) at 8 MPH (7 knots; 3.6 m/s)
Visibility: 6 or more miles (10+ km)
Ceiling: 1800 feet AGL
Clouds: broken clouds at 1800 feet AGL
broken clouds at 2400 feet AGL
Weather: no significant weather observed at this time

METAR text: YPXM 142200Z AUTO 13005KT 9999 // SCT016 BKN024 BKN029 25/22 Q1014
Conditions at: YPXM (CHRISTMAS ISL (P, AU) observed 2200 UTC 14 February 2019
Temperature: 25.0°C (77°F)
Dewpoint: 22.0°C (72°F) [RH = 83%]
Pressure (altimeter): 29.94 inches Hg (1014.0 mb)
Winds: from the SE (130 degrees) at 6 MPH (5 knots; 2.6 m/s)
Visibility: 6 or more miles (10+ km)
Ceiling: 2400 feet AGL
Clouds: scattered clouds at 1600 feet AGL
broken clouds at 2400 feet AGL
broken clouds at 2900 feet AGL
Weather: no significant weather observed at this time

METAR text: YPXM 142100Z AUTO 13005KT 9999 // BKN018 BKN023 24/22 Q1014
Conditions at: YPXM (CHRISTMAS ISL (P, AU) observed 2100 UTC 14 February 2019
Temperature: 24.0°C (75°F)
Dewpoint: 22.0°C (72°F) [RH = 89%]
Pressure (altimeter): 29.94 inches Hg (1014.0 mb)
Winds: from the SE (130 degrees) at 6 MPH (5 knots; 2.6 m/s)
Visibility: 6 or more miles (10+ km)
Ceiling: 1800 feet AGL
Clouds: broken clouds at 1800 feet AGL
broken clouds at 2300 feet AGL
Weather: no significant weather observed at this time

METAR text: YPXM 142000Z AUTO 13004KT 9999 // SCT018 24/22 Q1014
Conditions at: YPXM (CHRISTMAS ISL (P, AU) observed 2000 UTC 14 February 2019
Temperature: 24.0°C (75°F)
Dewpoint: 22.0°C (72°F) [RH = 89%]
Pressure (altimeter): 29.94 inches Hg (1014.0 mb)
Winds: from the SE (130 degrees) at 5 MPH (4 knots; 2.1 m/s)
Visibility: 6 or more miles (10+ km)
Ceiling: at least 12,000 feet AGL
Clouds: scattered clouds at 1800 feet AGL
Weather: no significant weather observed at this time

METAR text: YPXM 141900Z AUTO 14005KT 9999 // SCT017 24/22 Q1014
Conditions at: YPXM (CHRISTMAS ISL (P, AU) observed 1900 UTC 14 February 2019
Temperature: 24.0°C (75°F)
Dewpoint: 22.0°C (72°F) [RH = 89%]
Pressure (altimeter): 29.94 inches Hg (1014.0 mb)
Winds: from the SE (140 degrees) at 6 MPH (5 knots; 2.6 m/s)
Visibility: 6 or more miles (10+ km)
Ceiling: at least 12,000 feet AGL
Clouds: scattered clouds at 1700 feet AGL
Weather: no significant weather observed at this time

METAR text: YPXM 141830Z AUTO 13005KT 9999 // SCT019 25/22 Q1015
Conditions at: YPXM (CHRISTMAS ISL (P, AU) observed 1830 UTC 14 February 2019
Temperature: 25.0°C (77°F)
Dewpoint: 22.0°C (72°F) [RH = 83%]
Pressure (altimeter): 29.97 inches Hg (1015.0 mb)
Winds: from the SE (130 degrees) at 6 MPH (5 knots; 2.6 m/s)
Visibility: 6 or more miles (10+ km)
Ceiling: at least 12,000 feet AGL
Clouds: scattered clouds at 1900 feet AGL
Weather: no significant weather observed at this time

METAR text: YPXM 141800Z AUTO 13006KT 9999 // SCT019 25/22 Q1015
Conditions at: YPXM (CHRISTMAS ISL (P, AU) observed 1800 UTC 14 February 2019
Temperature: 25.0°C (77°F)
Dewpoint: 22.0°C (72°F) [RH = 83%]
Pressure (altimeter): 29.97 inches Hg (1015.0 mb)
Winds: from the SE (130 degrees) at 7 MPH (6 knots; 3.1 m/s)
Visibility: 6 or more miles (10+ km)
Ceiling: at least 12,000 feet AGL
Clouds: scattered clouds at 1900 feet AGL
Weather: no significant weather observed at this time

METAR text: YPXM 141730Z AUTO 13006KT 9999 // BKN019 BKN024 25/22 Q1015
Conditions at: YPXM (CHRISTMAS ISL (P, AU) observed 1730 UTC 14 February 2019
Temperature: 25.0°C (77°F)
Dewpoint: 22.0°C (72°F) [RH = 83%]
Pressure (altimeter): 29.97 inches Hg (1015.0 mb)
Winds: from the SE (130 degrees) at 7 MPH (6 knots; 3.1 m/s)
Visibility: 6 or more miles (10+ km)
Ceiling: 1900 feet AGL
Clouds: broken clouds at 1900 feet AGL
broken clouds at 2400 feet AGL
Weather: no significant weather observed at this time

METAR text: YPXM 141700Z AUTO 13006KT 9999 // BKN017 BKN022 25/22 Q1016
Conditions at: YPXM (CHRISTMAS ISL (P, AU) observed 1700 UTC 14 February 2019
Temperature: 25.0°C (77°F)
Dewpoint: 22.0°C (72°F) [RH = 83%]
Pressure (altimeter): 30.00 inches Hg (1016.0 mb)
Winds: from the SE (130 degrees) at 7 MPH (6 knots; 3.1 m/s)
Visibility: 6 or more miles (10+ km)
Ceiling: 1700 feet AGL
Clouds: broken clouds at 1700 feet AGL
broken clouds at 2200 feet AGL
Weather: no significant weather observed at this time

METAR text: YPXM 141630Z AUTO 13006KT 9999 // SCT019 25/22 Q1016
Conditions at: YPXM (CHRISTMAS ISL (P, AU) observed 1630 UTC 14 February 2019
Temperature: 25.0°C (77°F)
Dewpoint: 22.0°C (72°F) [RH = 83%]
Pressure (altimeter): 30.00 inches Hg (1016.0 mb)
Winds: from the SE (130 degrees) at 7 MPH (6 knots; 3.1 m/s)
Visibility: 6 or more miles (10+ km)
Ceiling: at least 12,000 feet AGL
Clouds: scattered clouds at 1900 feet AGL
Weather: no significant weather observed at this time

METAR text: YPXM 141600Z AUTO 13007KT 9999 // BKN017 BKN022 25/22 Q1016
Conditions at: YPXM (CHRISTMAS ISL (P, AU) observed 1600 UTC 14 February 2019
Temperature: 25.0°C (77°F)
Dewpoint: 22.0°C (72°F) [RH = 83%]
Pressure (altimeter): 30.00 inches Hg (1016.0 mb)
Winds: from the SE (130 degrees) at 8 MPH (7 knots; 3.6 m/s)
Visibility: 6 or more miles (10+ km)
Ceiling: 1700 feet AGL
Clouds: broken clouds at 1700 feet AGL
broken clouds at 2200 feet AGL
Weather: no significant weather observed at this time

METAR text: YPXM 141530Z AUTO 13006KT 9999 // SCT019 25/22 Q1016
Conditions at: YPXM (CHRISTMAS ISL (P, AU) observed 1530 UTC 14 February 2019
Temperature: 25.0°C (77°F)
Dewpoint: 22.0°C (72°F) [RH = 83%]
Pressure (altimeter): 30.00 inches Hg (1016.0 mb)
Winds: from the SE (130 degrees) at 7 MPH (6 knots; 3.1 m/s)
Visibility: 6 or more miles (10+ km)
Ceiling: at least 12,000 feet AGL
Clouds: scattered clouds at 1900 feet AGL
Weather: no significant weather observed at this time

METAR text: YPXM 141500Z AUTO 13006KT 9999 // NCD 25/21 Q1016
Conditions at: YPXM (CHRISTMAS ISL (P, AU) observed 1500 UTC 14 February 2019
Temperature: 25.0°C (77°F)
Dewpoint: 21.0°C (70°F) [RH = 79%]
Pressure (altimeter): 30.00 inches Hg (1016.0 mb)
Winds: from the SE (130 degrees) at 7 MPH (6 knots; 3.1 m/s)
Visibility: 6 or more miles (10+ km)
Ceiling: at least 12,000 feet AGL
Clouds: sky clear below 12,000 feet AGL
Weather: no significant weather observed at this time

METAR text: YPXM 141430Z AUTO 13007KT 9999 // SCT018 25/21 Q1016
Conditions at: YPXM (CHRISTMAS ISL (P, AU) observed 1430 UTC 14 February 2019
Temperature: 25.0°C (77°F)
Dewpoint: 21.0°C (70°F) [RH = 79%]
Pressure (altimeter): 30.00 inches Hg (1016.0 mb)
Winds: from the SE (130 degrees) at 8 MPH (7 knots; 3.6 m/s)
Visibility: 6 or more miles (10+ km)
Ceiling: at least 12,000 feet AGL
Clouds: scattered clouds at 1800 feet AGL
Weather: no significant weather observed at this time

METAR text: YPXM 141400Z AUTO 13007KT 9999 // SCT018 25/22 Q1016
Conditions at: YPXM (CHRISTMAS ISL (P, AU) observed 1400 UTC 14 February 2019
Temperature: 25.0°C (77°F)
Dewpoint: 22.0°C (72°F) [RH = 83%]
Pressure (altimeter): 30.00 inches Hg (1016.0 mb)
Winds: from the SE (130 degrees) at 8 MPH (7 knots; 3.6 m/s)
Visibility: 6 or more miles (10+ km)
Ceiling: at least 12,000 feet AGL
Clouds: scattered clouds at 1800 feet AGL
Weather: no significant weather observed at this time

METAR text: YPXM 141330Z AUTO 13007KT 9999 // SCT020 25/21 Q1015
Conditions at: YPXM (CHRISTMAS ISL (P, AU) observed 1330 UTC 14 February 2019
Temperature: 25.0°C (77°F)
Dewpoint: 21.0°C (70°F) [RH = 79%]
Pressure (altimeter): 29.97 inches Hg (1015.0 mb)
Winds: from the SE (130 degrees) at 8 MPH (7 knots; 3.6 m/s)
Visibility: 6 or more miles (10+ km)
Ceiling: at least 12,000 feet AGL
Clouds: scattered clouds at 2000 feet AGL
Weather: no significant weather observed at this time

METAR text: YPXM 141300Z AUTO 13008KT 9999 // BKN020 25/22 Q1015
Conditions at: YPXM (CHRISTMAS ISL (P, AU) observed 1300 UTC 14 February 2019
Temperature: 25.0°C (77°F)
Dewpoint: 22.0°C (72°F) [RH = 83%]
Pressure (altimeter): 29.97 inches Hg (1015.0 mb)
Winds: from the SE (130 degrees) at 9 MPH (8 knots; 4.1 m/s)
Visibility: 6 or more miles (10+ km)
Ceiling: 2000 feet AGL
Clouds: broken clouds at 2000 feet AGL
Weather: no significant weather observed at this time

METAR text: YPXM 141230Z AUTO 13008KT 9999 // SCT018 BKN023 25/22 Q1015
Conditions at: YPXM (CHRISTMAS ISL (P, AU) observed 1230 UTC 14 February 2019
Temperature: 25.0°C (77°F)
Dewpoint: 22.0°C (72°F) [RH = 83%]
Pressure (altimeter): 29.97 inches Hg (1015.0 mb)
Winds: from the SE (130 degrees) at 9 MPH (8 knots; 4.1 m/s)
Visibility: 6 or more miles (10+ km)
Ceiling: 2300 feet AGL
Clouds: scattered clouds at 1800 feet AGL
broken clouds at 2300 feet AGL
Weather: no significant weather observed at this time

METAR text: YPXM 141200Z AUTO 13007KT 9999 // SCT019 SCT023 25/21 Q1014
Conditions at: YPXM (CHRISTMAS ISL (P, AU) observed 1200 UTC 14 February 2019
Temperature: 25.0°C (77°F)
Dewpoint: 21.0°C (70°F) [RH = 79%]
Pressure (altimeter): 29.94 inches Hg (1014.0 mb)
Winds: from the SE (130 degrees) at 8 MPH (7 knots; 3.6 m/s)
Visibility: 6 or more miles (10+ km)
Ceiling: at least 12,000 feet AGL
Clouds: scattered clouds at 1900 feet AGL
scattered clouds at 2300 feet AGL
Weather: no significant weather observed at this time

Forecast for: YPXM (CHRISTMAS ISL (P, AU)
Text: TAF YPXM 152256Z 1600/1624 12008KT 9999 BKN015
Forecast period: 0000 to 1200 UTC 16 February 2019
Forecast type: FROM: standard forecast or significant change
Winds: from the ESE (120 degrees) at 9 MPH (8 knots; 4.1 m/s)
Visibility: 6 or more miles 10+ km)
Ceiling: 1500 feet AGL
Clouds: broken clouds at 1500 feet AGL
Weather: no significant weather forecast for this period
Text: FM161200 12005KT 9999 SCT020
Forecast period: 1200 UTC 16 February 2019 to 0000 UTC 17 February 2019
Forecast type: FROM: standard forecast or significant change
Winds: from the ESE (120 degrees) at 6 MPH (5 knots; 2.6 m/s)
Visibility: 6 or more miles 10+ km)
Ceiling: at least 12,000 feet AGL
Clouds: scattered clouds at 2000 feet AGL
Weather: no significant weather forecast for this period
Text: TEMPO 1600/1624 4000 SHRA BKN012
Forecast period: 0000 UTC 16 February 2019 to 0000 UTC 17 February 2019
Forecast type: TEMPORARY: The following changes expected for less than half the time period
Visibility: 2.49 miles (4.01 km)
Ceiling: 1200 feet AGL
Clouds: broken clouds at 1200 feet AGL
Weather: SHRA  (rain showers)